sensor_id;sensor_type;location;lat;lon;timestamp;pressure;altitude;pressure_sealevel;temperature;humidity
73457;BME280;61691;53.072;6.582;2023-03-01T00:01:37;103250.09;;;0.11;72.89
73457;BME280;61691;53.072;6.582;2023-03-01T00:04:04;103221.50;;;-0.06;73.10
73457;BME280;61691;53.072;6.582;2023-03-01T00:06:31;103246.63;;;0.09;73.07
73457;BME280;61691;53.072;6.582;2023-03-01T00:08:58;103239.75;;;-0.01;73.32
73457;BME280;61691;53.072;6.582;2023-03-01T00:11:30;103260.53;;;0.11;73.18
73457;BME280;61691;53.072;6.582;2023-03-01T00:13:59;103258.78;;;0.09;73.45
73457;BME280;61691;53.072;6.582;2023-03-01T00:16:30;103254.47;;;0.06;73.44
73457;BME280;61691;53.072;6.582;2023-03-01T00:18:58;103258.84;;;0.04;72.94
73457;BME280;61691;53.072;6.582;2023-03-01T00:21:25;103257.09;;;0.06;73.35
73457;BME280;61691;53.072;6.582;2023-03-01T00:23:53;103241.44;;;0.03;73.53
73457;BME280;61691;53.072;6.582;2023-03-01T00:26:21;103251.88;;;0.06;73.48
73457;BME280;61691;53.072;6.582;2023-03-01T00:28:48;103235.38;;;0.03;73.37
73457;BME280;61691;53.072;6.582;2023-03-01T00:31:18;103233.63;;;0.02;73.69
73457;BME280;61691;53.072;6.582;2023-03-01T00:33:46;103229.28;;;0.05;73.66
73457;BME280;61691;53.072;6.582;2023-03-01T00:36:14;103239.66;;;0.14;73.65
73457;BME280;61691;53.072;6.582;2023-03-01T00:38:44;103189.44;;;-0.20;73.74
73457;BME280;61691;53.072;6.582;2023-03-01T00:41:16;103239.66;;;0.08;73.54
73457;BME280;61691;53.072;6.582;2023-03-01T00:43:44;103247.44;;;0.16;73.55
73457;BME280;61691;53.072;6.582;2023-03-01T00:46:13;103254.38;;;0.21;73.53
73457;BME280;61691;53.072;6.582;2023-03-01T00:48:40;103231.84;;;0.10;73.98
73457;BME280;61691;53.072;6.582;2023-03-01T00:51:13;103225.75;;;0.09;73.75
73457;BME280;61691;53.072;6.582;2023-03-01T00:53:41;103243.09;;;0.16;73.86
73457;BME280;61691;53.072;6.582;2023-03-01T00:56:09;103214.50;;;0.01;73.89
73457;BME280;61691;53.072;6.582;2023-03-01T00:58:36;103236.19;;;0.09;74.10
73457;BME280;61691;53.072;6.582;2023-03-01T01:01:10;103247.50;;;0.13;73.76
73457;BME280;61691;53.072;6.582;2023-03-01T01:03:55;103242.28;;;0.10;73.88
73457;BME280;61691;53.072;6.582;2023-03-01T01:06:43;103218.91;;;-0.06;74.26
73457;BME280;61691;53.072;6.582;2023-03-01T01:09:13;103238.88;;;-0.02;73.83
73457;BME280;61691;53.072;6.582;2023-03-01T01:11:49;103228.50;;;-0.09;74.01
73457;BME280;61691;53.072;6.582;2023-03-01T01:14:17;103233.66;;;-0.06;73.89
73457;BME280;61691;53.072;6.582;2023-03-01T01:16:45;103210.28;;;-0.18;74.21
73457;BME280;61691;53.072;6.582;2023-03-01T01:19:12;103216.38;;;-0.19;74.47
73457;BME280;61691;53.072;6.582;2023-03-01T01:21:40;103212.06;;;-0.26;74.34
73457;BME280;61691;53.072;6.582;2023-03-01T01:24:09;103209.44;;;-0.26;74.26
73457;BME280;61691;53.072;6.582;2023-03-01T01:26:36;103208.59;;;-0.28;74.48
73457;BME280;61691;53.072;6.582;2023-03-01T01:29:04;103204.25;;;-0.29;74.65
73457;BME280;61691;53.072;6.582;2023-03-01T01:31:33;103184.31;;;-0.36;74.41
73457;BME280;61691;53.072;6.582;2023-03-01T01:34:01;103213.81;;;-0.28;74.59
73457;BME280;61691;53.072;6.582;2023-03-01T01:36:28;103202.53;;;-0.30;74.61
73457;BME280;61691;53.072;6.582;2023-03-01T01:38:56;103204.25;;;-0.28;74.58
73457;BME280;61691;53.072;6.582;2023-03-01T01:41:23;103153.16;;;-0.58;74.71
73457;BME280;61691;53.072;6.582;2023-03-01T01:44:15;103192.97;;;-0.31;75.20
73457;BME280;61691;53.072;6.582;2023-03-01T01:46:47;103187.78;;;-0.34;75.16
73457;BME280;61691;53.072;6.582;2023-03-01T01:49:32;103198.16;;;-0.28;74.96
73457;BME280;61691;53.072;6.582;2023-03-01T01:54:39;103200.81;;;-0.33;74.93
73457;BME280;61691;53.072;6.582;2023-03-01T01:57:11;103160.09;;;-0.54;74.79
73457;BME280;61691;53.072;6.582;2023-03-01T01:59:43;103199.03;;;-0.29;75.24
73457;BME280;61691;53.072;6.582;2023-03-01T02:02:12;103166.97;;;-0.44;75.05
73457;BME280;61691;53.072;6.582;2023-03-01T02:04:40;103190.38;;;-0.31;74.77
73457;BME280;61691;53.072;6.582;2023-03-01T02:07:19;103174.75;;;-0.38;75.39
73457;BME280;61691;53.072;6.582;2023-03-01T02:09:50;103184.28;;;-0.30;75.33
73457;BME280;61691;53.072;6.582;2023-03-01T02:12:21;103153.06;;;-0.44;75.18
73457;BME280;61691;53.072;6.582;2023-03-01T02:14:55;102986.03;;;-1.42;75.13
73457;BME280;61691;53.072;6.582;2023-03-01T02:17:22;103175.63;;;-0.32;75.06
73457;BME280;61691;53.072;6.582;2023-03-01T02:20:20;103144.44;;;-0.51;75.11
73457;BME280;61691;53.072;6.582;2023-03-01T02:22:50;103173.00;;;-0.37;75.29
73457;BME280;61691;53.072;6.582;2023-03-01T02:30:40;103147.03;;;-0.51;75.13
73457;BME280;61691;53.072;6.582;2023-03-01T02:33:31;103127.13;;;-0.67;75.39
73457;BME280;61691;53.072;6.582;2023-03-01T02:36:13;103102.03;;;-0.79;75.45
73457;BME280;61691;53.072;6.582;2023-03-01T02:38:42;103141.00;;;-0.56;75.16
73457;BME280;61691;53.072;6.582;2023-03-01T02:41:12;103111.56;;;-0.77;75.12
73457;BME280;61691;53.072;6.582;2023-03-01T02:43:40;103147.06;;;-0.55;75.22
73457;BME280;61691;53.072;6.582;2023-03-01T02:46:22;103147.06;;;-0.57;75.62
73457;BME280;61691;53.072;6.582;2023-03-01T02:48:52;103147.06;;;-0.58;75.70
73457;BME280;61691;53.072;6.582;2023-03-01T02:51:48;103140.16;;;-0.61;75.32
73457;BME280;61691;53.072;6.582;2023-03-01T02:54:33;103134.94;;;-0.64;75.57
73457;BME280;61691;53.072;6.582;2023-03-01T02:57:03;103120.22;;;-0.74;75.34
73457;BME280;61691;53.072;6.582;2023-03-01T02:59:31;103128.91;;;-0.69;75.69
73457;BME280;61691;53.072;6.582;2023-03-01T03:02:07;103105.53;;;-0.87;75.40
73457;BME280;61691;53.072;6.582;2023-03-01T03:04:34;103123.69;;;-0.72;75.53
73457;BME280;61691;53.072;6.582;2023-03-01T03:07:01;103092.56;;;-0.92;75.45
73457;BME280;61691;53.072;6.582;2023-03-01T03:09:27;103104.66;;;-0.86;75.81
73457;BME280;61691;53.072;6.582;2023-03-01T03:11:55;103120.28;;;-0.83;75.42
73457;BME280;61691;53.072;6.582;2023-03-01T03:14:21;103109.00;;;-0.87;75.59
73457;BME280;61691;53.072;6.582;2023-03-01T03:16:49;103121.16;;;-0.84;75.34
73457;BME280;61691;53.072;6.582;2023-03-01T03:19:18;103118.56;;;-0.90;75.73
73457;BME280;61691;53.072;6.582;2023-03-01T03:21:45;103099.50;;;-1.04;75.87
73457;BME280;61691;53.072;6.582;2023-03-01T03:24:12;103123.78;;;-0.93;75.66
73457;BME280;61691;53.072;6.582;2023-03-01T03:26:39;103115.13;;;-0.98;75.61
73457;BME280;61691;53.072;6.582;2023-03-01T03:29:05;103124.69;;;-1.00;75.79
73457;BME280;61691;53.072;6.582;2023-03-01T03:31:33;103121.22;;;-1.04;75.93
73457;BME280;61691;53.072;6.582;2023-03-01T03:34:00;103110.84;;;-1.16;75.42
73457;BME280;61691;53.072;6.582;2023-03-01T03:36:27;103109.13;;;-1.22;75.51
73457;BME280;61691;53.072;6.582;2023-03-01T03:38:54;103122.13;;;-1.15;75.79
73457;BME280;61691;53.072;6.582;2023-03-01T03:41:20;103113.47;;;-1.21;75.73
73457;BME280;61691;53.072;6.582;2023-03-01T03:43:47;103052.84;;;-1.65;75.48
73457;BME280;61691;53.072;6.582;2023-03-01T03:46:15;103116.09;;;-1.30;75.43
73457;BME280;61691;53.072;6.582;2023-03-01T03:48:44;103112.63;;;-1.33;75.80
73457;BME280;61691;53.072;6.582;2023-03-01T03:51:14;103134.28;;;-1.24;75.54
73457;BME280;61691;53.072;6.582;2023-03-01T03:53:42;103110.91;;;-1.40;75.68
73457;BME280;61691;53.072;6.582;2023-03-01T03:56:09;103117.84;;;-1.36;75.41
73457;BME280;61691;53.072;6.582;2023-03-01T03:58:36;103123.03;;;-1.32;75.90
73457;BME280;61691;53.072;6.582;2023-03-01T04:01:03;103130.81;;;-1.35;75.59
73457;BME280;61691;53.072;6.582;2023-03-01T04:03:31;103101.41;;;-1.52;75.54
73457;BME280;61691;53.072;6.582;2023-03-01T04:05:59;103110.06;;;-1.44;75.84
73457;BME280;61691;53.072;6.582;2023-03-01T04:08:27;103131.69;;;-1.34;75.56
73457;BME280;61691;53.072;6.582;2023-03-01T04:11:02;103110.03;;;-1.47;75.71
73457;BME280;61691;53.072;6.582;2023-03-01T04:13:51;103098.81;;;-1.60;75.73
73457;BME280;61691;53.072;6.582;2023-03-01T04:16:18;103117.00;;;-1.55;75.64
73457;BME280;61691;53.072;6.582;2023-03-01T04:18:45;103136.06;;;-1.44;75.62
73457;BME280;61691;53.072;6.582;2023-03-01T04:21:12;103123.94;;;-1.56;75.86
73457;BME280;61691;53.072;6.582;2023-03-01T04:23:39;103122.22;;;-1.61;75.52
73457;BME280;61691;53.072;6.582;2023-03-01T04:26:07;103083.22;;;-1.81;75.65
73457;BME280;61691;53.072;6.582;2023-03-01T04:28:39;103126.53;;;-1.56;75.28
73457;BME280;61691;53.072;6.582;2023-03-01T04:31:12;103113.56;;;-1.66;75.57
73457;BME280;61691;53.072;6.582;2023-03-01T04:33:52;103123.06;;;-1.59;75.30
73457;BME280;61691;53.072;6.582;2023-03-01T04:36:22;103111.81;;;-1.67;75.15
73457;BME280;61691;53.072;6.582;2023-03-01T04:38:50;103116.13;;;-1.63;75.33
73457;BME280;61691;53.072;6.582;2023-03-01T04:41:18;103090.16;;;-1.81;75.15
73457;BME280;61691;53.072;6.582;2023-03-01T04:43:46;103078.88;;;-1.88;75.04
73457;BME280;61691;53.072;6.582;2023-03-01T04:46:15;103094.47;;;-1.80;74.99
73457;BME280;61691;53.072;6.582;2023-03-01T04:48:43;103110.94;;;-1.72;75.30
73457;BME280;61691;53.072;6.582;2023-03-01T04:51:11;103099.69;;;-1.74;75.25
73457;BME280;61691;53.072;6.582;2023-03-01T04:53:41;103105.75;;;-1.74;75.37
73457;BME280;61691;53.072;6.582;2023-03-01T04:56:08;103067.63;;;-1.99;75.65
73457;BME280;61691;53.072;6.582;2023-03-01T04:58:35;103031.25;;;-2.14;75.12
73457;BME280;61691;53.072;6.582;2023-03-01T05:01:11;103098.81;;;-1.76;75.00
73457;BME280;61691;53.072;6.582;2023-03-01T05:03:43;103084.06;;;-1.86;75.12
73457;BME280;61691;53.072;6.582;2023-03-01T05:06:10;103090.13;;;-1.80;75.36
73457;BME280;61691;53.072;6.582;2023-03-01T05:08:41;103087.56;;;-1.81;75.41
73457;BME280;61691;53.072;6.582;2023-03-01T05:11:09;102983.63;;;-2.39;75.22
73457;BME280;61691;53.072;6.582;2023-03-01T05:13:37;103050.31;;;-2.05;75.09
73457;BME280;61691;53.072;6.582;2023-03-01T05:16:06;103073.69;;;-1.92;75.08
73457;BME280;61691;53.072;6.582;2023-03-01T05:18:33;103069.34;;;-1.92;75.18
73457;BME280;61691;53.072;6.582;2023-03-01T05:21:07;103074.53;;;-1.87;75.14
73457;BME280;61691;53.072;6.582;2023-03-01T05:23:34;103052.91;;;-1.96;75.07
73457;BME280;61691;53.072;6.582;2023-03-01T05:26:03;103051.19;;;-1.97;74.82
73457;BME280;61691;53.072;6.582;2023-03-01T05:28:33;103044.22;;;-1.93;74.95
73457;BME280;61691;53.072;6.582;2023-03-01T05:30:59;103043.38;;;-2.01;75.15
73457;BME280;61691;53.072;6.582;2023-03-01T05:33:27;103049.41;;;-1.95;74.87
73457;BME280;61691;53.072;6.582;2023-03-01T05:35:54;103023.44;;;-2.10;74.96
73457;BME280;61691;53.072;6.582;2023-03-01T05:38:21;103039.06;;;-2.04;75.00
73457;BME280;61691;53.072;6.582;2023-03-01T05:40:49;102930.81;;;-2.68;75.04
73457;BME280;61691;53.072;6.582;2023-03-01T05:43:16;103050.31;;;-2.00;75.07
73457;BME280;61691;53.072;6.582;2023-03-01T05:45:44;103047.72;;;-1.99;75.00
73457;BME280;61691;53.072;6.582;2023-03-01T05:48:11;102999.22;;;-2.24;74.96
73457;BME280;61691;53.072;6.582;2023-03-01T05:50:43;103032.97;;;-2.09;75.07
73457;BME280;61691;53.072;6.582;2023-03-01T05:53:16;103038.19;;;-2.04;74.89
73457;BME280;61691;53.072;6.582;2023-03-01T05:55:43;102967.19;;;-2.49;74.73
73457;BME280;61691;53.072;6.582;2023-03-01T05:58:12;103020.00;;;-2.21;75.12
73457;BME280;61691;53.072;6.582;2023-03-01T06:00:41;103033.84;;;-2.07;75.10
73457;BME280;61691;53.072;6.582;2023-03-01T06:03:10;103038.16;;;-2.09;74.64
73457;BME280;61691;53.072;6.582;2023-03-01T06:05:38;102994.00;;;-2.33;75.01
73457;BME280;61691;53.072;6.582;2023-03-01T06:08:06;103032.97;;;-2.10;75.17
73457;BME280;61691;53.072;6.582;2023-03-01T06:10:33;103039.03;;;-2.10;74.98
73457;BME280;61691;53.072;6.582;2023-03-01T06:13:00;103036.47;;;-2.13;74.76
73457;BME280;61691;53.072;6.582;2023-03-01T06:15:27;103035.59;;;-2.15;75.16
73457;BME280;61691;53.072;6.582;2023-03-01T06:17:55;102995.75;;;-2.41;75.05
73457;BME280;61691;53.072;6.582;2023-03-01T06:20:28;103048.56;;;-2.10;74.93
73457;BME280;61691;53.072;6.582;2023-03-01T06:22:55;103047.72;;;-2.11;74.79
73457;BME280;61691;53.072;6.582;2023-03-01T06:25:24;103037.31;;;-2.26;74.69
73457;BME280;61691;53.072;6.582;2023-03-01T06:27:51;103010.44;;;-2.40;74.79
73457;BME280;61691;53.072;6.582;2023-03-01T06:30:22;103063.31;;;-2.11;74.88
73457;BME280;61691;53.072;6.582;2023-03-01T06:32:49;103062.44;;;-2.11;74.97
73457;BME280;61691;53.072;6.582;2023-03-01T06:35:17;103064.16;;;-2.09;74.69
73457;BME280;61691;53.072;6.582;2023-03-01T06:37:46;103072.81;;;-2.08;75.14
73457;BME280;61691;53.072;6.582;2023-03-01T06:40:14;103058.97;;;-2.12;74.71
73457;BME280;61691;53.072;6.582;2023-03-01T06:42:43;103075.44;;;-2.07;74.92
73457;BME280;61691;53.072;6.582;2023-03-01T06:45:13;103065.03;;;-2.10;75.02
73457;BME280;61691;53.072;6.582;2023-03-01T06:47:40;103028.66;;;-2.28;74.99
73457;BME280;61691;53.072;6.582;2023-03-01T06:50:08;103031.25;;;-2.22;74.90
73457;BME280;61691;53.072;6.582;2023-03-01T06:52:35;103078.00;;;-1.95;74.80
73457;BME280;61691;53.072;6.582;2023-03-01T06:55:02;103065.03;;;-1.98;75.02
73457;BME280;61691;53.072;6.582;2023-03-01T06:57:29;103067.66;;;-1.96;74.86
73457;BME280;61691;53.072;6.582;2023-03-01T06:59:57;103066.78;;;-1.97;74.61
73457;BME280;61691;53.072;6.582;2023-03-01T07:02:23;103071.94;;;-1.95;74.92
73457;BME280;61691;53.072;6.582;2023-03-01T07:04:51;103082.34;;;-1.84;75.03
73457;BME280;61691;53.072;6.582;2023-03-01T07:07:18;103085.81;;;-1.76;74.97
73457;BME280;61691;53.072;6.582;2023-03-01T07:09:45;103084.06;;;-1.77;75.12
73457;BME280;61691;53.072;6.582;2023-03-01T07:12:12;103098.81;;;-1.69;74.33
73457;BME280;61691;53.072;6.582;2023-03-01T07:14:40;103085.78;;;-1.64;74.96
73457;BME280;61691;53.072;6.582;2023-03-01T07:17:07;103090.09;;;-1.57;75.06
73457;BME280;61691;53.072;6.582;2023-03-01T07:19:34;103082.31;;;-1.51;74.58
73457;BME280;61691;53.072;6.582;2023-03-01T07:22:01;103068.44;;;-1.53;74.67
73457;BME280;61691;53.072;6.582;2023-03-01T07:24:28;103078.81;;;-1.38;74.84
73457;BME280;61691;53.072;6.582;2023-03-01T07:26:54;103071.84;;;-1.33;74.94
73457;BME280;61691;53.072;6.582;2023-03-01T07:29:21;103031.16;;;-1.46;74.64
73457;BME280;61691;53.072;6.582;2023-03-01T07:31:48;103073.56;;;-1.13;74.49
73457;BME280;61691;53.072;6.582;2023-03-01T07:34:15;103062.25;;;-1.08;74.59
73457;BME280;61691;53.072;6.582;2023-03-01T07:36:42;103050.97;;;-1.05;75.02
73457;BME280;61691;53.072;6.582;2023-03-01T07:39:11;103056.06;;;-0.90;74.60
73457;BME280;61691;53.072;6.582;2023-03-01T07:41:38;103054.28;;;-0.82;74.59
73457;BME280;61691;53.072;6.582;2023-03-01T07:44:06;103005.81;;;-1.01;74.66
73457;BME280;61691;53.072;6.582;2023-03-01T07:46:33;103056.72;;;-0.52;74.71
73457;BME280;61691;53.072;6.582;2023-03-01T07:48:59;103048.91;;;-0.46;74.80
73457;BME280;61691;53.072;6.582;2023-03-01T07:51:26;103071.28;;;-0.20;74.25
73457;BME280;61691;53.072;6.582;2023-03-01T07:53:53;103076.34;;;-0.02;74.76
73457;BME280;61691;53.072;6.582;2023-03-01T07:56:20;103062.44;;;-0.01;74.32
73457;BME280;61691;53.072;6.582;2023-03-01T07:58:48;103084.00;;;0.21;74.20
73457;BME280;61691;53.072;6.582;2023-03-01T08:01:19;103084.72;;;0.33;74.16
73457;BME280;61691;53.072;6.582;2023-03-01T08:03:46;103046.59;;;0.20;74.09
73457;BME280;61691;53.072;6.582;2023-03-01T08:06:15;103074.16;;;0.46;74.59
73457;BME280;61691;53.072;6.582;2023-03-01T08:08:42;103082.75;;;0.60;74.32
73457;BME280;61691;53.072;6.582;2023-03-01T08:11:14;103056.66;;;0.57;74.43
73457;BME280;61691;53.072;6.582;2023-03-01T08:13:42;103041.00;;;0.58;74.15
73457;BME280;61691;53.072;6.582;2023-03-01T08:16:14;103077.28;;;0.81;74.09
73457;BME280;61691;53.072;6.582;2023-03-01T08:18:42;103056.47;;;0.75;74.19
73457;BME280;61691;53.072;6.582;2023-03-01T08:21:15;103080.63;;;0.92;74.07
73457;BME280;61691;53.072;6.582;2023-03-01T08:23:43;103075.31;;;0.98;73.95
73457;BME280;61691;53.072;6.582;2023-03-01T08:26:13;103083.97;;;1.03;73.92
73457;BME280;61691;53.072;6.582;2023-03-01T08:28:41;103062.31;;;0.95;74.05
73457;BME280;61691;53.072;6.582;2023-03-01T08:31:18;103078.66;;;1.12;74.26
73457;BME280;61691;53.072;6.582;2023-03-01T08:33:47;103065.59;;;1.12;74.14
73457;BME280;61691;53.072;6.582;2023-03-01T08:36:17;103050.81;;;1.08;74.63
73457;BME280;61691;53.072;6.582;2023-03-01T08:38:44;103069.66;;;1.32;74.48
73457;BME280;61691;53.072;6.582;2023-03-01T08:41:12;103047.16;;;1.22;74.76
73457;BME280;61691;53.072;6.582;2023-03-01T08:43:39;103037.53;;;1.27;74.62
73457;BME280;61691;53.072;6.582;2023-03-01T08:46:06;103065.97;;;1.48;74.99
73457;BME280;61691;53.072;6.582;2023-03-01T08:48:32;103066.75;;;1.53;74.73
73457;BME280;61691;53.072;6.582;2023-03-01T08:51:17;103070.13;;;1.61;75.08
73457;BME280;61691;53.072;6.582;2023-03-01T08:53:47;103041.56;;;1.49;74.75
73457;BME280;61691;53.072;6.582;2023-03-01T08:56:14;103070.91;;;1.66;74.80
73457;BME280;61691;53.072;6.582;2023-03-01T08:58:46;103078.63;;;1.74;75.46
73457;BME280;61691;53.072;6.582;2023-03-01T09:01:16;103079.41;;;1.80;75.45
73457;BME280;61691;53.072;6.582;2023-03-01T09:03:44;103003.34;;;1.42;75.81
73457;BME280;61691;53.072;6.582;2023-03-01T09:06:11;103063.66;;;1.83;75.43
73457;BME280;61691;53.072;6.582;2023-03-01T09:08:40;103078.22;;;2.01;75.59
73457;BME280;61691;53.072;6.582;2023-03-01T09:11:08;103066.78;;;2.07;75.85
73457;BME280;61691;53.072;6.582;2023-03-01T09:13:35;103031.16;;;1.98;75.38
73457;BME280;61691;53.072;6.582;2023-03-01T09:16:05;103049.16;;;2.18;75.62
73457;BME280;61691;53.072;6.582;2023-03-01T09:18:33;103014.53;;;2.02;75.60
73457;BME280;61691;53.072;6.582;2023-03-01T09:21:15;103026.53;;;2.14;75.82
73457;BME280;61691;53.072;6.582;2023-03-01T09:23:47;103054.00;;;2.39;76.26
73457;BME280;61691;53.072;6.582;2023-03-01T09:26:17;103038.22;;;2.42;76.27
73457;BME280;61691;53.072;6.582;2023-03-01T09:28:46;103049.38;;;2.52;76.19
73457;BME280;61691;53.072;6.582;2023-03-01T09:31:15;103033.53;;;2.59;76.06
73457;BME280;61691;53.072;6.582;2023-03-01T09:33:46;103035.97;;;2.68;76.14
73457;BME280;61691;53.072;6.582;2023-03-01T09:36:17;103016.81;;;2.66;76.42
73457;BME280;61691;53.072;6.582;2023-03-01T09:38:44;103008.78;;;2.74;76.26
73457;BME280;61691;53.072;6.582;2023-03-01T09:43:47;103035.25;;;3.03;76.10
73457;BME280;61691;53.072;6.582;2023-03-01T09:46:23;103047.16;;;3.18;76.16
73457;BME280;61691;53.072;6.582;2023-03-01T09:49:01;103037.38;;;3.26;76.12
73457;BME280;61691;53.072;6.582;2023-03-01T09:51:33;103012.25;;;3.16;76.55
73457;BME280;61691;53.072;6.582;2023-03-01T09:54:05;102995.69;;;3.16;76.24
73457;BME280;61691;53.072;6.582;2023-03-01T09:56:37;103024.91;;;3.37;76.12
73457;BME280;61691;53.072;6.582;2023-03-01T09:59:23;103010.06;;;3.36;76.02
73457;BME280;61691;53.072;6.582;2023-03-01T10:04:46;103045.91;;;3.73;75.56
73457;BME280;61691;53.072;6.582;2023-03-01T10:09:47;103047.41;;;3.83;75.03
73457;BME280;61691;53.072;6.582;2023-03-01T10:12:27;103057.53;;;3.98;74.71
73457;BME280;61691;53.072;6.582;2023-03-01T10:15:16;103045.91;;;4.07;74.40
73457;BME280;61691;53.072;6.582;2023-03-01T10:18:00;102974.09;;;3.77;74.24
73457;BME280;61691;53.072;6.582;2023-03-01T10:23:04;103008.25;;;4.09;73.63
73457;BME280;61691;53.072;6.582;2023-03-01T10:30:44;103033.75;;;4.37;72.18
73457;BME280;61691;53.072;6.582;2023-03-01T10:33:21;103031.63;;;4.51;71.21
73457;BME280;61691;53.072;6.582;2023-03-01T10:35:48;103016.19;;;4.39;68.78
73457;BME280;61691;53.072;6.582;2023-03-01T10:38:16;103014.41;;;4.41;69.90
73457;BME280;61691;53.072;6.582;2023-03-01T10:43:51;103031.28;;;4.63;67.27
73457;BME280;61691;53.072;6.582;2023-03-01T10:46:28;103033.88;;;4.64;67.55
73457;BME280;61691;53.072;6.582;2023-03-01T10:49:21;103029.38;;;4.68;67.52
73457;BME280;61691;53.072;6.582;2023-03-01T10:51:50;103014.59;;;4.65;67.47
73457;BME280;61691;53.072;6.582;2023-03-01T10:54:28;103016.88;;;4.76;66.08
73457;BME280;61691;53.072;6.582;2023-03-01T10:56:57;103023.78;;;4.80;65.30
73457;BME280;61691;53.072;6.582;2023-03-01T11:07:24;102979.16;;;4.79;63.59
73457;BME280;61691;53.072;6.582;2023-03-01T11:09:51;103002.31;;;4.95;63.53
73457;BME280;61691;53.072;6.582;2023-03-01T11:12:18;103005.66;;;5.00;63.60
73457;BME280;61691;53.072;6.582;2023-03-01T11:14:52;103013.31;;;5.08;63.45
73457;BME280;61691;53.072;6.582;2023-03-01T11:17:28;103008.94;;;5.09;62.47
73457;BME280;61691;53.072;6.582;2023-03-01T11:22:55;103017.25;;;5.23;63.05
73457;BME280;61691;53.072;6.582;2023-03-01T11:25:30;102977.47;;;5.05;62.88
73457;BME280;61691;53.072;6.582;2023-03-01T11:27:59;103011.59;;;5.35;62.71
73457;BME280;61691;53.072;6.582;2023-03-01T11:30:36;103015.84;;;5.40;63.16
73457;BME280;61691;53.072;6.582;2023-03-01T11:33:13;103009.59;;;5.43;62.49
73457;BME280;61691;53.072;6.582;2023-03-01T11:38:49;102968.75;;;5.33;63.08
73457;BME280;61691;53.072;6.582;2023-03-01T11:41:23;103007.38;;;5.57;62.06
73457;BME280;61691;53.072;6.582;2023-03-01T12:03:16;102985.16;;;5.94;60.30
73457;BME280;61691;53.072;6.582;2023-03-01T12:08:54;102988.50;;;5.99;59.92
73457;BME280;61691;53.072;6.582;2023-03-01T12:11:49;102981.28;;;6.04;59.67
73457;BME280;61691;53.072;6.582;2023-03-01T12:22:30;102955.69;;;6.09;59.50
73457;BME280;61691;53.072;6.582;2023-03-01T12:27:55;102957.63;;;6.27;58.83
73457;BME280;61691;53.072;6.582;2023-03-01T12:41:29;102913.91;;;6.23;56.85
73457;BME280;61691;53.072;6.582;2023-03-01T12:47:18;102893.69;;;6.24;56.93
73457;BME280;61691;53.072;6.582;2023-03-01T12:49:51;102902.91;;;6.35;57.44
73457;BME280;61691;53.072;6.582;2023-03-01T12:52:43;102918.47;;;6.41;57.02
73457;BME280;61691;53.072;6.582;2023-03-01T13:00:32;102905.34;;;6.40;57.62
73457;BME280;61691;53.072;6.582;2023-03-01T13:08:36;102907.03;;;6.42;57.39
73457;BME280;61691;53.072;6.582;2023-03-01T13:11:14;102907.50;;;6.53;57.29
73457;BME280;61691;53.072;6.582;2023-03-01T13:13:42;102898.88;;;6.48;57.18
73457;BME280;61691;53.072;6.582;2023-03-01T13:16:40;102899.31;;;6.61;57.79
73457;BME280;61691;53.072;6.582;2023-03-01T13:19:17;102844.72;;;6.41;57.73
73457;BME280;61691;53.072;6.582;2023-03-01T13:21:47;102887.75;;;6.64;57.54
73457;BME280;61691;53.072;6.582;2023-03-01T13:24:28;102882.38;;;6.67;58.02
73457;BME280;61691;53.072;6.582;2023-03-01T13:30:01;102889.75;;;6.80;58.06
73457;BME280;61691;53.072;6.582;2023-03-01T13:32:33;102890.63;;;6.81;58.15
73457;BME280;61691;53.072;6.582;2023-03-01T13:37:37;102857.88;;;6.65;58.61
73457;BME280;61691;53.072;6.582;2023-03-01T13:42:53;102875.66;;;6.81;58.58
73457;BME280;61691;53.072;6.582;2023-03-01T13:45:38;102857.50;;;6.74;58.97
73457;BME280;61691;53.072;6.582;2023-03-01T13:48:16;102817.91;;;6.53;58.82
73457;BME280;61691;53.072;6.582;2023-03-01T13:50:50;102855.94;;;6.91;58.72
73457;BME280;61691;53.072;6.582;2023-03-01T13:53:19;102854.22;;;6.90;58.95
73457;BME280;61691;53.072;6.582;2023-03-01T13:55:55;102849.91;;;6.88;59.08
73457;BME280;61691;53.072;6.582;2023-03-01T13:58:28;102811.34;;;6.64;59.14
73457;BME280;61691;53.072;6.582;2023-03-01T14:00:58;102846.34;;;6.89;58.81
73457;BME280;61691;53.072;6.582;2023-03-01T14:03:26;102842.66;;;6.93;59.43
73457;BME280;61691;53.072;6.582;2023-03-01T14:06:06;102839.91;;;6.96;59.29
73457;BME280;61691;53.072;6.582;2023-03-01T14:08:44;102831.13;;;6.95;59.08
73457;BME280;61691;53.072;6.582;2023-03-01T14:19:43;102828.44;;;6.97;59.91
73457;BME280;61691;53.072;6.582;2023-03-01T14:22:26;102826.72;;;6.96;59.75
73457;BME280;61691;53.072;6.582;2023-03-01T14:25:05;102814.53;;;6.93;59.17
73457;BME280;61691;53.072;6.582;2023-03-01T14:27:38;102763.91;;;6.64;59.27
73457;BME280;61691;53.072;6.582;2023-03-01T14:30:27;102816.84;;;7.01;59.03
73457;BME280;61691;53.072;6.582;2023-03-01T14:32:59;102827.22;;;7.06;59.24
73457;BME280;61691;53.072;6.582;2023-03-01T14:35:29;102810.78;;;6.99;58.97
73457;BME280;61691;53.072;6.582;2023-03-01T14:37:57;102807.22;;;7.00;59.52
73457;BME280;61691;53.072;6.582;2023-03-01T14:42:59;102806.72;;;7.12;59.60
73457;BME280;61691;53.072;6.582;2023-03-01T14:45:29;102800.69;;;7.09;59.84
73457;BME280;61691;53.072;6.582;2023-03-01T14:48:00;102798.13;;;7.07;59.36
73457;BME280;61691;53.072;6.582;2023-03-01T14:50:30;102767.22;;;6.90;59.95
73457;BME280;61691;53.072;6.582;2023-03-01T14:53:04;102689.84;;;6.49;60.24
73457;BME280;61691;53.072;6.582;2023-03-01T14:55:43;102777.03;;;7.07;60.28
73457;BME280;61691;53.072;6.582;2023-03-01T14:58:18;102781.91;;;7.16;59.95
73457;BME280;61691;53.072;6.582;2023-03-01T15:00:58;102719.34;;;6.79;59.92
73457;BME280;61691;53.072;6.582;2023-03-01T15:03:32;102776.63;;;7.16;60.13
73457;BME280;61691;53.072;6.582;2023-03-01T15:06:01;102766.25;;;7.13;60.00
73457;BME280;61691;53.072;6.582;2023-03-01T15:08:29;102759.25;;;7.12;60.45
73457;BME280;61691;53.072;6.582;2023-03-01T15:13:31;102727.41;;;6.96;60.60
73457;BME280;61691;53.072;6.582;2023-03-01T15:16:05;102750.53;;;7.10;60.22